Terminal Aerodrome Forecast
Issued by NWS Sterling, VA

Home | Current Version | Previous Version | Text Only | Print | Product List | Glossary On
Versions: 1 2 3 4 5 6 7 8 9 10 11 12 13 14 15 16 17 18 19 20 21 22 23 24
000
FTUS41 KLWX 291134
TAFBWI
TAF
KBWI 291134Z 2912/3018 00000KT 5SM BR SCT015
     FM291300 VRB03KT P6SM SCT250
     FM291800 17005KT P6SM BKN060
     FM291900 17006KT P6SM SCT060
     FM301600 23007KT 6SM -SHRA VCTS BKN050CB=

USA.gov is the U.S. government's official web portal to all federal, state and local government web resources and services.